Time;durP1;ratioP1;P1;durP2;ratioP2;P2;SDS_P1;SDS_P2;PMS_P1;PMS_P2;Temp;Humidity;BMP_temperature;BMP_pressure;BME280_temperature;BME280_humidity;BME280_pressure;Samples;Min_cycle;Max_cycle;Signal;HPM_P1;HPM_P2
2022/03/23 00:02:05;;;;;;;32.35;22.77;;;6.50;90.50;;;5.73;91.51;101815.72;4992823;28;20051;-77
2022/03/23 00:04:32;;;;;;;36.67;23.15;;;6.30;90.90;;;5.71;94.24;101815.69;4989815;28;20562;-77
2022/03/23 00:07:02;;;;;;;28.02;21.30;;;6.60;91.10;;;5.65;92.53;101823.41;4991983;28;20129;-75
2022/03/23 00:09:48;;;;;;;30.73;22.08;;;6.20;91.10;;;5.57;93.97;101815.44;4989028;28;20485;-76
2022/03/23 00:12:23;;;;;;;30.17;22.38;;;6.20;90.90;;;5.65;88.86;101821.66;4990748;28;20050;-75
2022/03/23 00:14:50;;;;;;;27.17;21.40;;;6.20;90.60;;;5.59;91.67;101818.94;4990976;28;20522;-76
2022/03/23 00:17:20;;;;;;;26.92;20.58;;;6.10;91.00;;;5.55;91.12;101819.75;4989638;28;20043;-75
2022/03/23 00:19:48;;;;;;;29.58;20.73;;;6.10;91.00;;;5.38;93.92;101827.22;4989842;28;20117;-76
2022/03/23 00:22:18;;;;;;;29.50;21.17;;;7.20;91.80;;;5.21;97.95;101827.75;4990142;28;20042;-73
2022/03/23 00:24:45;;;;;;;27.85;21.35;;;6.10;91.80;;;5.19;97.63;101825.94;4990551;28;20056;-73
2022/03/23 00:27:12;;;;;;;25.48;20.80;;;6.00;91.80;;;5.22;95.05;101834.72;4991084;28;20038;-76
2022/03/23 00:29:40;;;;;;;24.92;21.00;;;5.80;91.50;;;5.17;95.26;101827.63;4973358;28;20781;-76
2022/03/23 00:32:07;;;;;;;25.55;20.45;;;6.80;91.80;;;4.97;95.11;101830.69;4989669;28;20046;-76
2022/03/23 00:34:34;;;;;;;25.90;20.67;;;5.80;91.40;;;4.90;97.70;101819.22;4988197;28;20093;-76
2022/03/23 00:37:02;;;;;;;27.02;21.30;;;5.70;91.60;;;4.83;100.00;101831.25;4973080;28;20113;-75
2022/03/23 00:39:29;;;;;;;29.45;21.05;;;5.60;92.20;;;4.81;100.00;101829.44;4989293;28;20039;-75
2022/03/23 00:41:58;;;;;;;28.27;20.52;;;5.60;92.70;;;4.80;100.00;101825.97;4989241;28;20657;-76
2022/03/23 00:44:29;;;;;;;28.20;20.42;;;5.50;93.00;;;4.75;100.00;101824.09;4972549;28;20054;-76
2022/03/23 00:46:56;;;;;;;27.88;21.65;;;5.50;92.80;;;4.83;100.00;101830.34;4988911;28;20061;-76
2022/03/23 00:49:23;;;;;;;27.50;19.67;;;7.50;93.60;;;4.76;99.60;101836.28;4973234;28;20530;-77
2022/03/23 00:51:53;;;;;;;27.88;21.98;;;5.90;92.90;;;4.68;100.00;101831.78;4989452;28;20742;-76
2022/03/23 00:54:21;;;;;;;27.20;20.85;;;5.40;92.80;;;4.64;100.00;101834.28;4989400;28;20050;-76
2022/03/23 00:56:51;;;;;;;27.70;20.42;;;5.30;93.00;;;4.58;100.00;101831.50;4988795;28;20066;-76
2022/03/23 00:59:20;;;;;;;25.70;19.73;;;5.30;93.50;;;4.65;100.00;101830.81;4989112;28;20038;-75
2022/03/23 01:01:50;;;;;;;25.15;19.75;;;5.50;93.20;;;4.58;100.00;101835.00;4989000;28;20042;-75
2022/03/23 01:04:18;;;;;;;27.48;20.02;;;5.20;93.30;;;4.39;100.00;101839.75;4987649;28;20054;-75
2022/03/23 01:06:45;;;;;;;26.90;19.40;;;5.10;93.20;;;4.33;100.00;101839.59;4988135;28;20046;-76
2022/03/23 01:09:13;;;;;;;27.27;19.95;;;5.10;93.50;;;4.35;100.00;101837.91;4989443;28;20048;-76
2022/03/23 01:11:40;;;;;;;28.55;19.27;;;5.10;93.70;;;4.30;100.00;101841.25;4972474;28;20058;-75
2022/03/23 01:14:08;;;;;;;28.13;20.05;;;5.00;93.60;;;4.18;100.00;101841.81;4987852;28;20500;-76
2022/03/23 01:16:36;;;;;;;26.83;19.17;;;5.00;93.60;;;4.07;100.00;101847.63;4988320;28;20157;-75
2022/03/23 01:19:06;;;;;;;29.17;21.13;;;4.90;93.40;;;4.14;100.00;101839.97;4972890;28;20078;-75
2022/03/23 01:21:34;;;;;;;25.65;19.13;;;4.80;94.30;;;4.24;100.00;101842.84;5004695;28;20140;-77
2022/03/23 01:24:01;;;;;;;31.27;20.45;;;4.90;94.40;;;4.32;100.00;101839.56;4987355;28;20145;-76
2022/03/23 01:26:28;;;;;;;26.42;19.42;;;4.80;94.30;;;4.40;100.00;101832.81;4989436;28;20118;-75
2022/03/23 01:28:55;;;;;;;27.90;21.27;;;4.80;94.30;;;4.48;100.00;101843.44;4988737;28;20388;-76
2022/03/23 01:31:22;;;;;;;35.00;22.60;;;6.50;94.90;;;4.46;100.00;101847.72;4989996;28;20488;-75
2022/03/23 01:33:50;;;;;;;32.28;23.48;;;5.00;94.30;;;4.45;100.00;101839.03;4986903;28;20038;-75
2022/03/23 01:36:19;;;;;;;29.92;23.23;;;5.50;94.20;;;4.41;100.00;101837.19;4986308;28;20551;-75
2022/03/23 01:38:46;;;;;;;29.73;23.13;;;5.00;94.00;;;4.29;100.00;101836.88;4988065;28;20101;-77
2022/03/23 01:41:14;;;;;;;27.63;22.27;;;5.50;94.40;;;4.14;100.00;101833.03;4972178;28;20141;-75
2022/03/23 01:43:41;;;;;;;31.40;22.80;;;6.00;94.80;;;3.93;100.00;101838.56;4987093;28;20058;-75
2022/03/23 01:46:08;;;;;;;32.08;21.65;;;4.90;94.50;;;4.00;100.00;101830.06;4987832;28;20583;-75
2022/03/23 01:48:35;;;;;;;29.90;22.38;;;4.70;94.20;;;4.00;100.00;101832.66;4973516;28;20050;-75
2022/03/23 01:51:03;;;;;;;28.92;22.35;;;4.70;94.40;;;3.95;100.00;101839.47;4985021;28;20051;-75
2022/03/23 01:53:30;;;;;;;26.85;21.15;;;4.60;94.80;;;3.92;100.00;101840.28;4967520;28;20057;-75
2022/03/23 01:55:59;;;;;;;29.77;22.23;;;4.60;94.60;;;3.89;100.00;101841.91;4969752;28;20070;-75
2022/03/23 01:58:26;;;;;;;26.98;22.55;;;5.70;95.00;;;3.78;100.00;101839.00;4984695;28;20054;-75
2022/03/23 02:00:53;;;;;;;29.50;21.77;;;4.60;94.60;;;3.67;100.00;101846.53;4970159;28;20039;-75
2022/03/23 02:03:22;;;;;;;28.77;20.92;;;4.50;94.50;;;3.72;100.00;101844.06;4951596;28;20043;-75
2022/03/23 02:05:49;;;;;;;27.42;22.02;;;5.10;94.90;;;3.87;100.00;101848.78;4984380;28;20887;-75
2022/03/23 02:08:19;;;;;;;26.55;20.73;;;4.50;94.60;;;3.68;100.00;101845.69;4968453;28;20035;-75
2022/03/23 02:10:49;;;;;;;28.20;21.50;;;5.60;95.40;;;3.51;100.00;101838.28;4968423;28;20587;-76
2022/03/23 02:13:21;;;;;;;32.83;21.88;;;4.40;95.40;;;3.61;100.00;101842.03;4952413;28;20542;-75
2022/03/23 02:15:49;;;;;;;26.30;21.02;;;5.10;95.40;;;3.65;100.00;101841.25;4967869;28;20061;-75
2022/03/23 02:18:16;;;;;;;28.55;21.15;;;4.30;95.10;;;3.43;100.00;101838.91;4968359;28;20050;-76
2022/03/23 02:20:43;;;;;;;26.98;21.13;;;4.20;94.60;;;3.44;100.00;101838.94;4968187;28;20039;-75
2022/03/23 02:23:11;;;;;;;28.67;20.80;;;4.20;94.70;;;3.39;100.00;101838.81;4967446;28;20050;-76
2022/03/23 02:25:40;;;;;;;29.60;21.17;;;4.20;95.10;;;3.45;100.00;101840.72;4968830;28;20047;-75
2022/03/23 02:28:08;;;;;;;26.40;19.88;;;4.10;95.30;;;3.32;100.00;101833.38;4968385;28;20052;-75
2022/03/23 02:30:35;;;;;;;32.60;23.17;;;4.20;95.50;;;3.42;100.00;101830.19;4968268;28;20947;-76
2022/03/23 02:33:02;;;;;;;25.27;20.02;;;4.10;95.30;;;3.49;100.00;101829.53;4967260;28;20555;-75
2022/03/23 02:35:29;;;;;;;26.92;19.85;;;4.00;95.30;;;3.51;100.00;101832.16;4967795;28;20049;-77
2022/03/23 02:37:56;;;;;;;25.58;20.65;;;4.10;95.20;;;3.47;100.00;101836.44;4985083;28;20065;-76
2022/03/23 02:40:23;;;;;;;28.25;20.45;;;4.00;94.90;;;3.40;100.00;101832.75;4968311;28;20047;-76
2022/03/23 02:42:50;;;;;;;26.45;19.33;;;4.10;94.90;;;3.40;100.00;101832.75;4966846;28;20081;-75
2022/03/23 02:45:18;;;;;;;28.35;21.05;;;4.10;94.70;;;3.34;100.00;101840.38;4968880;28;20038;-75
2022/03/23 02:47:45;;;;;;;26.20;18.90;;;4.10;95.10;;;3.32;100.00;101833.38;4967795;28;20583;-76
2022/03/23 02:50:12;;;;;;;26.60;20.33;;;3.90;95.00;;;3.16;100.00;101830.31;4968239;28;20050;-75
2022/03/23 03:01:52;;;;;;;27.83;19.90;;;4.00;94.90;;;3.08;100.00;101824.88;4967215;28;20393;-75
2022/03/23 03:04:17;;;;;;;26.95;21.17;;;3.70;95.40;;;2.75;100.00;101848.09;4989362;28;20125;-76
2022/03/23 03:06:45;;;;;;;27.75;19.02;;;3.70;95.60;;;2.88;100.00;101851.97;4988087;28;20074;-75
2022/03/23 03:09:14;;;;;;;23.73;19.55;;;3.60;95.50;;;2.68;100.00;101849.63;4987487;28;20042;-75
2022/03/23 03:11:43;;;;;;;28.10;19.13;;;3.40;95.80;;;2.46;100.00;101856.72;4987188;28;20046;-75
2022/03/23 03:14:12;;;;;;;23.65;19.50;;;3.50;95.60;;;2.57;100.00;101856.19;4986203;28;20051;-75
2022/03/23 03:16:39;;;;;;;22.75;19.17;;;3.40;96.00;;;2.48;100.00;101868.06;4974275;28;20113;-74
2022/03/23 03:19:11;;;;;;;24.45;19.15;;;5.30;96.70;;;2.32;100.00;101858.84;4972379;28;20133;-75
2022/03/23 03:21:38;;;;;;;27.60;19.88;;;3.30;96.20;;;2.38;100.00;101866.84;4983044;28;20554;-76
2022/03/23 03:24:22;;;;;;;26.50;19.70;;;3.20;96.20;;;2.36;100.00;101859.84;4986599;28;20038;-75
2022/03/23 03:26:50;;;;;;;29.75;19.77;;;5.00;96.70;;;2.27;100.00;101868.19;4986142;28;20567;-75
2022/03/23 03:29:17;;;;;;;25.98;18.85;;;3.20;96.60;;;2.25;100.00;101867.28;4970230;28;20073;-75
2022/03/23 03:36:05;;;;;;;27.17;19.55;;;3.10;96.70;;;2.16;100.00;101864.34;4987649;28;20057;-75
2022/03/23 03:38:36;;;;;;;24.30;19.60;;;3.10;96.70;;;2.17;100.00;101868.69;4986867;28;20400;-75
2022/03/23 03:41:05;;;;;;;25.08;19.63;;;3.10;96.90;;;2.31;100.00;101877.84;4987448;28;20089;-75
2022/03/23 03:43:32;;;;;;;26.88;19.15;;;3.00;96.50;;;2.25;100.00;101873.31;4971873;28;20051;-76
2022/03/23 03:46:01;;;;;;;27.05;19.77;;;2.90;96.60;;;2.26;100.00;101871.63;4970143;28;20046;-75
2022/03/23 03:48:29;;;;;;;27.33;19.10;;;3.00;96.50;;;2.20;100.00;101885.28;4970821;28;20046;-75
2022/03/23 03:50:57;;;;;;;25.92;18.33;;;2.90;96.60;;;2.29;100.00;101887.31;4971329;28;20058;-76
2022/03/23 03:53:24;;;;;;;27.80;19.00;;;3.10;96.40;;;2.24;100.00;101879.34;4968927;28;20072;-74
2022/03/23 03:56:04;;;;;;;25.85;18.65;;;3.00;96.50;;;2.22;100.00;101887.94;4970301;28;20590;-75
2022/03/23 03:58:31;;;;;;;25.70;19.15;;;3.00;96.40;;;1.98;100.00;101878.44;4971260;28;20062;-77
2022/03/23 04:00:58;;;;;;;24.17;18.15;;;4.70;97.50;;;1.90;100.00;101885.09;4970434;28;20043;-75
2022/03/23 04:03:26;;;;;;;23.67;18.38;;;2.90;97.00;;;1.83;100.00;101883.97;4969681;28;20038;-74
2022/03/23 04:05:53;;;;;;;25.17;18.58;;;2.80;97.30;;;1.84;100.00;101891.81;4969987;28;20234;-75
2022/03/23 04:08:20;;;;;;;27.33;19.63;;;4.50;97.40;;;1.80;100.00;101891.66;4972286;28;20147;-74
2022/03/23 04:10:47;;;;;;;26.23;20.42;;;2.70;97.20;;;1.82;100.00;101893.47;4976669;28;20053;-75
2022/03/23 04:13:14;;;;;;;24.60;19.55;;;2.80;96.90;;;1.88;100.00;101891.94;4989149;28;20669;-76
2022/03/23 04:15:41;;;;;;;24.95;19.00;;;2.70;97.30;;;1.77;100.00;101900.22;4989442;28;20156;-75
2022/03/23 04:18:08;;;;;;;29.20;20.05;;;3.80;97.90;;;1.83;100.00;101891.75;4990270;28;20724;-76
2022/03/23 04:20:36;;;;;;;24.80;18.15;;;2.70;97.70;;;1.69;100.00;101891.25;4991009;28;20050;-76
2022/03/23 04:23:09;;;;;;;23.10;18.38;;;3.60;97.90;;;1.74;100.00;101887.13;4989099;28;20034;-76
2022/03/23 04:25:36;;;;;;;26.48;18.77;;;2.60;97.60;;;1.77;100.00;101895.00;4989369;28;20050;-75
2022/03/23 04:28:06;;;;;;;24.00;18.38;;;2.50;97.70;;;1.78;100.00;101890.69;5005869;28;20042;-75
2022/03/23 04:30:33;;;;;;;;;;;2.50;97.50;;;1.78;100.00;101898.47;4989962;28;20500;-74
2022/03/23 04:33:01;;;;;;;24.95;19.52;;;2.50;97.60;;;1.73;100.00;101906.13;4973540;28;20016;-76
2022/03/23 04:35:28;;;;;;;24.58;18.10;;;2.50;98.20;;;1.68;100.00;101916.31;4989711;28;20137;-76
2022/03/23 04:37:57;;;;;;;25.95;18.90;;;2.40;97.80;;;1.74;100.00;101910.47;4973319;28;20583;-75
2022/03/23 04:40:24;;;;;;;24.73;19.60;;;2.50;97.60;;;1.60;100.00;101911.69;4989589;28;20447;-74
2022/03/23 04:42:52;;;;;;;25.90;19.30;;;2.40;98.00;;;1.48;100.00;101910.38;4988778;28;20069;-75
2022/03/23 04:45:19;;;;;;;30.92;18.55;;;2.40;97.80;;;1.49;100.00;101912.13;4993638;28;20038;-74
2022/03/23 04:47:52;;;;;;;25.95;19.63;;;2.40;98.00;;;1.46;100.00;101909.44;4993846;28;20062;-75
2022/03/23 04:50:20;;;;;;;24.58;18.52;;;2.90;98.40;;;1.46;100.00;101914.63;4990911;28;20052;-75
2022/03/23 04:52:48;;;;;;;29.45;18.63;;;2.40;98.50;;;1.50;100.00;101913.91;4988513;28;20046;-74
2022/03/23 04:55:16;;;;;;;25.15;17.50;;;2.30;98.50;;;1.48;100.00;101918.16;4988869;28;20081;-75
2022/03/23 04:57:43;;;;;;;25.23;18.95;;;2.40;98.10;;;1.51;100.00;101925.19;4988590;28;20050;-75
2022/03/23 05:00:15;;;;;;;21.95;17.77;;;2.30;97.80;;;1.53;100.00;101913.16;5004812;28;20091;-75
2022/03/23 05:02:45;;;;;;;25.27;19.20;;;2.30;97.90;;;1.48;100.00;101919.84;4989191;28;20717;-75
2022/03/23 05:05:16;;;;;;;26.67;19.40;;;2.10;98.10;;;1.54;100.00;101917.50;4994061;28;20042;-76
2022/03/23 05:07:45;;;;;;;26.60;19.63;;;2.40;98.10;;;1.51;100.00;101918.25;4989388;28;20050;-76
2022/03/23 05:10:15;;;;;;;24.70;18.48;;;2.40;98.00;;;1.54;100.00;101915.78;4990808;28;20047;-76
2022/03/23 05:12:47;;;;;;;24.98;20.13;;;2.30;98.10;;;1.65;100.00;101926.59;4972110;28;20046;-75
2022/03/23 05:15:15;;;;;;;;;;;2.30;98.20;;;1.72;100.00;101927.72;4982995;28;20046;-75
2022/03/23 05:17:44;;;;;;;30.23;19.45;;;2.40;98.10;;;1.69;100.00;101928.47;4989458;28;19926;-75
2022/03/23 05:20:14;;;;;;;32.05;22.98;;;2.40;98.40;;;1.75;100.00;101926.91;4983946;28;20141;-75
2022/03/23 05:22:44;;;;;;;30.63;23.02;;;2.30;98.20;;;1.65;100.00;101926.59;4988724;28;20061;-75
2022/03/23 05:25:13;;;;;;;28.80;21.08;;;4.80;98.70;;;1.66;100.00;101936.16;4988737;28;20759;-74
2022/03/23 05:27:45;;;;;;;26.63;20.27;;;2.40;98.00;;;1.62;100.00;101948.94;4989814;28;20416;-75
2022/03/23 05:30:13;;;;;;;23.48;18.55;;;2.40;97.80;;;1.44;100.00;101947.41;5004273;28;20057;-76
2022/03/23 05:32:42;;;;;;;27.13;19.42;;;2.40;97.40;;;1.57;100.00;101940.97;4972991;28;20046;-76
2022/03/23 05:35:13;;;;;;;23.83;17.55;;;2.30;97.70;;;1.54;100.00;101944.31;4984654;28;20062;-75
2022/03/23 05:37:40;;;;;;;27.80;19.08;;;2.30;97.80;;;1.55;100.00;101953.00;4975296;28;20178;-76
2022/03/23 05:40:10;;;;;;;23.73;17.05;;;2.30;97.80;;;1.62;100.00;101943.75;4969957;28;20050;-76
2022/03/23 05:42:38;;;;;;;22.38;18.02;;;2.30;97.40;;;1.43;100.00;101948.22;4953568;28;20051;-76
2022/03/23 05:45:07;;;;;;;23.00;17.45;;;2.40;97.40;;;1.62;100.00;101951.53;4973166;28;20077;-76
2022/03/23 05:47:34;;;;;;;26.77;21.17;;;2.30;97.20;;;1.72;100.00;101957.94;4989856;28;20038;-76
2022/03/23 05:50:01;;;;;;;30.55;20.75;;;2.30;98.30;;;1.76;100.00;101952.94;4973196;28;20054;-75
2022/03/23 05:52:28;;;;;;;26.65;19.13;;;2.40;98.10;;;1.72;100.00;101957.94;4989448;28;20057;-76
2022/03/23 05:54:56;;;;;;;30.38;21.75;;;2.50;98.00;;;1.82;100.00;101954.88;4989157;28;20531;-76
2022/03/23 05:57:23;;;;;;;40.40;29.35;;;2.60;97.70;;;1.75;100.00;101955.47;4988275;28;20044;-76
2022/03/23 05:59:50;;;;;;;64.00;45.92;;;3.90;98.10;;;1.71;100.00;101967.44;4972594;28;20042;-76
2022/03/23 06:02:17;;;;;;;50.30;36.08;;;2.60;97.90;;;1.65;100.00;101967.22;5004735;28;20403;-76
2022/03/23 06:04:46;;;;;;;42.88;29.35;;;2.50;97.90;;;1.73;100.00;101971.00;4972762;28;20420;-77
2022/03/23 06:07:13;;;;;;;32.75;21.77;;;2.50;97.70;;;1.63;100.00;101969.72;4972370;28;20488;-77
2022/03/23 06:09:40;;;;;;;26.00;20.15;;;2.60;97.70;;;1.47;100.00;101973.47;4988387;28;20039;-77
2022/03/23 06:12:12;;;;;;;21.60;18.33;;;2.40;97.50;;;1.54;100.00;101979.78;4988208;28;20117;-77
2022/03/23 06:14:42;;;;;;;26.42;17.95;;;2.40;97.40;;;1.51;100.00;101972.75;4988856;28;20081;-77
2022/03/23 06:17:10;;;;;;;23.25;18.05;;;2.40;97.60;;;1.52;100.00;101977.09;4988879;28;20054;-76
2022/03/23 06:19:38;;;;;;;24.10;18.65;;;2.50;97.60;;;1.59;100.00;101973.03;4988890;28;20137;-76
2022/03/23 06:22:08;;;;;;;30.10;18.42;;;2.50;97.80;;;1.58;100.00;101973.88;4988663;28;20047;-77
2022/03/23 06:24:42;;;;;;;24.90;17.30;;;3.60;98.00;;;1.62;100.00;101978.34;4988327;28;20042;-76
2022/03/23 06:27:09;;;;;;;25.83;17.52;;;3.30;98.10;;;1.75;100.00;101973.63;4972331;28;20046;-77
2022/03/23 06:29:37;;;;;;;22.67;17.80;;;2.60;98.20;;;1.78;100.00;101974.66;4988114;28;20681;-76
2022/03/23 06:32:05;;;;;;;28.42;18.52;;;2.50;98.00;;;1.81;100.00;101977.34;4972329;28;20061;-77
2022/03/23 06:34:32;;;;;;;26.50;18.52;;;2.60;97.90;;;1.91;100.00;101973.38;4987853;28;20056;-75
2022/03/23 06:37:01;;;;;;;26.35;18.92;;;2.60;98.30;;;2.05;100.00;101975.63;4972472;28;20693;-75
2022/03/23 06:39:32;;;;;;;22.35;16.70;;;2.60;98.50;;;2.10;100.00;101977.56;4982796;28;20169;-76
2022/03/23 06:41:59;;;;;;;22.77;18.98;;;2.70;98.40;;;2.20;100.00;101970.97;5004075;28;20052;-77
2022/03/23 06:44:27;;;;;;;25.77;18.20;;;2.70;98.30;;;2.37;100.00;101978.50;5004014;28;20164;-77
2022/03/23 06:46:54;;;;;;;29.38;19.50;;;2.90;98.10;;;2.47;100.00;101980.59;4989743;28;20117;-77
2022/03/23 06:49:21;;;;;;;28.23;20.80;;;3.00;98.10;;;2.50;100.00;101982.44;4977555;28;20076;-77
2022/03/23 06:51:48;;;;;;;25.67;18.50;;;3.00;97.70;;;2.65;100.00;101992.47;4975613;28;20054;-77
2022/03/23 06:54:17;;;;;;;26.40;19.33;;;3.10;97.80;;;2.73;100.00;101987.53;4989639;28;20149;-78
2022/03/23 06:56:44;;;;;;;23.58;17.02;;;3.10;97.90;;;2.79;100.00;101980.84;4973447;28;20053;-77
2022/03/23 06:59:11;;;;;;;24.02;17.13;;;3.30;97.80;;;2.89;100.00;101983.72;4992318;28;20526;-79
2022/03/23 07:01:38;;;;;;;26.50;16.50;;;4.20;97.70;;;3.02;100.00;101985.91;4994338;28;20577;-78
2022/03/23 07:04:05;;;;;;;26.58;16.52;;;3.40;97.30;;;3.13;100.00;101988.91;4995666;28;20046;-77
2022/03/23 07:06:32;;;;;;;21.95;16.40;;;3.50;96.70;;;3.25;100.00;101991.88;4991147;28;20081;-77
2022/03/23 07:11:45;;;;;;;23.52;16.15;;;3.70;96.60;;;3.38;100.00;101997.47;4989519;28;20074;-76
2022/03/23 07:14:12;;;;;;;20.95;18.63;;;3.90;96.50;;;3.62;100.00;102005.16;4987967;28;20161;-76
2022/03/23 07:16:41;;;;;;;28.00;21.33;;;3.90;96.50;;;3.72;100.00;101995.91;4972018;28;20080;-75
2022/03/23 07:19:09;;;;;;;25.45;18.80;;;4.00;96.30;;;3.88;100.00;102001.59;4973260;28;20161;-76
2022/03/23 07:21:36;;;;;;;25.92;18.95;;;4.10;96.00;;;4.00;100.00;101999.34;4975737;28;20082;-76
2022/03/23 07:24:04;;;;;;;26.77;18.75;;;4.30;96.00;;;4.16;100.00;102005.00;4993167;28;20062;-77
2022/03/23 07:26:31;;;;;;;25.38;16.95;;;4.40;95.70;;;4.24;100.00;102004.38;4979956;28;20426;-79
2022/03/23 07:28:58;;;;;;;23.30;18.27;;;4.60;95.50;;;4.38;100.00;102002.19;4979750;28;20050;-77
2022/03/23 07:31:25;;;;;;;24.77;19.90;;;4.60;95.40;;;4.53;100.00;102011.28;4995484;28;20479;-77
2022/03/23 07:33:52;;;;;;;25.15;16.55;;;4.90;95.40;;;4.72;100.00;102010.03;5000738;28;20042;-80
2022/03/23 07:36:20;;;;;;;21.42;16.88;;;5.00;95.40;;;4.87;100.00;102012.19;5004189;28;20101;-76
2022/03/23 07:38:47;;;;;;;24.92;17.33;;;5.80;95.40;;;4.97;100.00;102016.78;5008691;28;20152;-77
2022/03/23 07:41:14;;;;;;;25.70;18.63;;;5.20;95.00;;;5.03;99.66;102009.97;4992426;28;20125;-77
2022/03/23 07:43:41;;;;;;;28.00;18.95;;;5.90;95.10;;;5.13;100.00;102011.06;4994063;28;20050;-76
2022/03/23 07:46:08;;;;;;;29.27;18.50;;;5.40;94.90;;;5.20;100.00;102016.47;5005330;28;20786;-76
2022/03/23 07:48:35;;;;;;;26.63;19.58;;;5.50;95.10;;;5.34;100.00;102016.81;4991490;28;20500;-76
2022/03/23 07:51:03;;;;;;;31.95;22.45;;;7.30;95.70;;;5.44;98.21;102019.66;4992080;28;20117;-76
2022/03/23 07:53:30;;;;;;;26.33;19.50;;;5.80;94.70;;;5.51;93.16;102013.72;4975656;28;20054;-77
2022/03/23 07:55:57;;;;;;;25.45;18.17;;;6.70;94.30;;;5.54;91.25;102011.16;4991373;28;20050;-77
2022/03/23 07:58:25;;;;;;;18.80;15.10;;;5.80;93.80;;;5.68;85.34;102012.38;4975166;28;20466;-78
2022/03/23 08:00:53;;;;;;;23.30;16.55;;;6.00;93.10;;;5.72;84.40;102018.56;4993575;28;20050;-77
2022/03/23 08:03:21;;;;;;;21.08;16.10;;;6.00;93.00;;;5.80;85.67;102021.34;4995550;28;20049;-78
2022/03/23 08:05:48;;;;;;;25.38;16.58;;;6.00;93.00;;;5.90;86.20;102015.47;5002589;28;20037;-78
2022/03/23 08:08:15;;;;;;;25.25;17.30;;;7.20;93.30;;;6.00;87.77;102023.50;5000386;28;20042;-76
2022/03/23 08:10:43;;;;;;;22.02;16.98;;;6.20;93.00;;;6.08;86.85;102014.13;5007432;28;20047;-76
2022/03/23 08:13:12;;;;;;;25.75;17.65;;;6.60;93.20;;;6.21;87.00;102020.50;4975541;28;20046;-77
2022/03/23 08:15:41;;;;;;;23.80;16.90;;;6.40;93.10;;;6.28;84.99;102024.13;4975109;28;20050;-76
2022/03/23 08:18:08;;;;;;;25.08;17.23;;;6.50;92.80;;;6.45;86.41;102022.72;4991078;28;20095;-77
2022/03/23 08:20:35;;;;;;;25.98;16.63;;;7.00;93.20;;;6.57;85.06;102019.47;4990822;28;20058;-77
2022/03/23 08:23:09;;;;;;;19.85;15.73;;;6.70;92.90;;;6.70;82.29;102025.81;4991004;28;20641;-77
2022/03/23 08:25:38;;;;;;;20.30;15.95;;;6.80;92.60;;;6.75;79.62;102020.69;4972316;28;20065;-77
2022/03/23 08:28:06;;;;;;;20.10;15.55;;;8.10;92.50;;;6.83;80.59;102013.84;4988875;28;20039;-78
2022/03/23 08:30:33;;;;;;;20.08;15.80;;;7.00;92.20;;;6.94;76.37;102021.88;4989889;28;20130;-77
2022/03/23 08:33:02;;;;;;;17.35;14.63;;;7.10;91.80;;;7.06;78.24;102013.38;4990787;28;20061;-77
2022/03/23 08:35:35;;;;;;;17.52;15.23;;;8.20;92.10;;;7.11;75.66;102021.31;4990799;28;20077;-77
2022/03/23 08:38:03;;;;;;;21.90;15.93;;;7.30;91.50;;;7.20;76.35;102024.06;4990717;28;20054;-77
2022/03/23 08:40:31;;;;;;;18.80;14.77;;;7.30;91.60;;;7.31;74.74;102030.38;4991743;28;20533;-76
2022/03/23 08:42:59;;;;;;;21.63;16.23;;;7.50;91.40;;;7.34;73.66;102019.94;4993861;28;20054;-76
2022/03/23 08:45:27;;;;;;;22.30;16.73;;;7.60;91.30;;;7.48;71.98;102024.50;4977885;28;20106;-76
2022/03/23 08:48:02;;;;;;;21.75;15.55;;;7.60;90.90;;;7.59;69.12;102009.84;4993974;28;20042;-77
2022/03/23 08:50:29;;;;;;;21.95;16.38;;;7.80;90.50;;;7.75;68.24;102024.03;4995117;28;20050;-76
2022/03/23 08:52:56;;;;;;;21.00;15.35;;;7.80;90.30;;;7.86;67.71;102024.19;4992430;28;20057;-75
2022/03/23 08:55:30;;;;;;;21.60;16.38;;;8.00;90.20;;;8.04;66.30;102020.03;4977789;28;20046;-76
2022/03/23 08:57:57;;;;;;;20.92;16.13;;;8.10;90.00;;;8.16;63.16;102019.34;4994325;28;20061;-76
2022/03/23 09:00:25;;;;;;;20.65;16.05;;;8.20;88.40;;;8.22;62.92;102015.06;4984602;28;20407;-76
2022/03/23 09:02:53;;;;;;;23.17;16.85;;;8.40;87.90;;;8.30;61.82;102011.63;4989282;28;20039;-77
2022/03/23 09:05:20;;;;;;;22.13;15.45;;;8.40;87.10;;;8.45;61.58;102014.44;4989543;28;20475;-76
2022/03/23 09:07:47;;;;;;;20.67;15.85;;;9.20;87.50;;;8.50;59.90;102009.28;4989895;28;20030;-77
2022/03/23 09:10:16;;;;;;;21.70;16.48;;;8.60;86.10;;;8.55;58.30;102009.34;4990149;28;20591;-75
2022/03/23 09:12:43;;;;;;;21.70;16.98;;;8.60;85.00;;;8.58;59.22;102011.97;4990273;28;20050;-76
2022/03/23 09:15:14;;;;;;;22.00;15.38;;;8.70;84.90;;;8.75;59.39;102004.28;5008940;28;20049;-77
2022/03/23 09:18:01;;;;;;;24.13;16.00;;;8.80;85.20;;;8.97;58.86;102005.34;4990661;28;20033;-77
2022/03/23 09:20:29;;;;;;;20.35;15.52;;;9.00;85.00;;;9.06;57.99;102013.31;4991157;28;20054;-78
2022/03/23 09:22:59;;;;;;;24.25;17.65;;;9.10;84.50;;;9.19;56.06;102010.81;4976922;28;20100;-78
2022/03/23 09:25:27;;;;;;;23.38;17.88;;;9.20;82.80;;;9.29;55.43;102009.13;4977389;28;20050;-78
2022/03/23 09:27:57;;;;;;;18.67;15.40;;;9.60;82.50;;;9.38;55.25;102005.69;4994065;28;20046;-78
2022/03/23 09:30:42;;;;;;;22.42;16.20;;;10.70;82.60;;;9.41;54.39;102005.69;4980074;28;20038;-79
2022/03/23 09:33:09;;;;;;;23.92;17.42;;;9.70;81.10;;;9.54;54.38;102004.91;4994693;28;20050;-79
2022/03/23 09:35:36;;;;;;;25.10;18.27;;;9.50;80.80;;;9.64;52.92;101998.88;4975319;28;20105;-77
2022/03/23 09:38:04;;;;;;;23.60;17.58;;;9.60;79.30;;;9.72;52.29;101998.00;4993677;28;20038;-79
2022/03/23 09:40:32;;;;;;;23.75;17.33;;;11.10;79.20;;;9.79;51.96;101997.19;4977539;28;20146;-78
2022/03/23 09:43:09;;;;;;;24.35;17.25;;;9.80;77.70;;;9.90;52.23;101998.09;4993273;28;20051;-79
2022/03/23 09:45:56;;;;;;;23.25;15.95;;;9.90;77.80;;;10.16;51.46;101988.59;4990352;28;20027;-76
2022/03/23 09:48:26;;;;;;;22.15;16.85;;;10.00;77.20;;;10.22;50.37;101991.25;4974277;28;20081;-77
2022/03/23 09:50:55;;;;;;;23.20;16.08;;;10.20;75.50;;;10.37;49.20;101985.13;4974398;28;20105;-78
2022/03/23 09:53:24;;;;;;;24.98;16.10;;;10.60;74.30;;;10.47;48.80;101989.59;4973853;28;20141;-77
2022/03/23 09:55:52;;;;;;;22.15;16.63;;;10.50;72.90;;;10.64;48.18;101987.00;4990351;28;20046;-77
2022/03/23 09:58:19;;;;;;;19.17;16.23;;;10.60;72.00;;;10.77;47.51;101982.63;4974774;28;20115;-78
2022/03/23 10:00:48;;;;;;;21.25;17.20;;;11.00;71.20;;;10.84;46.62;101980.88;4991363;28;20050;-78
2022/03/23 10:04:06;;;;;;;24.05;17.88;;;10.90;69.80;;;10.97;45.43;101986.16;4989451;28;20038;-78
2022/03/23 10:06:54;;;;;;;21.35;16.88;;;10.90;67.60;;;11.12;45.05;101980.00;4990138;28;20419;-76
2022/03/23 10:09:26;;;;;;;20.05;17.20;;;11.10;66.80;;;11.12;45.05;101978.25;4988961;28;20060;-76
2022/03/23 10:12:50;;;;;;;21.77;16.35;;;11.10;66.60;;;11.25;45.13;101973.84;5005423;28;20610;-77
2022/03/23 10:16:14;;;;;;;20.13;15.52;;;11.20;65.90;;;11.26;43.44;101972.09;4970533;28;20045;-76
2022/03/23 10:18:59;;;;;;;19.70;15.82;;;11.30;64.00;;;11.47;41.69;101964.16;4972020;28;20051;-77
2022/03/23 10:21:39;;;;;;;18.50;14.93;;;11.40;60.70;;;11.67;40.51;101967.63;4992027;28;20084;-78
2022/03/23 10:24:06;;;;;;;19.23;14.60;;;11.50;59.30;;;11.81;39.98;101959.66;4990493;28;20042;-77
2022/03/23 10:26:40;;;;;;;20.15;14.27;;;11.70;58.30;;;11.84;39.40;101963.16;4990658;28;20317;-78
2022/03/23 10:29:23;;;;;;;18.98;16.08;;;11.80;57.30;;;11.92;38.72;101956.09;5005160;28;20085;-78
2022/03/23 10:32:08;;;;;;;17.00;14.45;;;11.80;55.60;;;12.13;39.89;101953.41;4988342;28;20058;-76
2022/03/23 10:34:47;;;;;;;15.60;13.60;;;12.00;56.70;;;12.27;37.72;101953.34;4972250;28;20605;-77